sensor_id;sensor_type;location;lat;lon;timestamp;P1;durP1;ratioP1;P2;durP2;ratioP2
84766;SDS011;74995;49.824;10.994;2023-12-20T00:01:07;8.50;;;3.20;;
84766;SDS011;74995;49.824;10.994;2023-12-20T00:03:32;4.22;;;3.05;;
84766;SDS011;74995;49.824;10.994;2023-12-20T00:05:58;5.35;;;3.10;;
84766;SDS011;74995;49.824;10.994;2023-12-20T00:08:23;3.63;;;2.90;;
84766;SDS011;74995;49.824;10.994;2023-12-20T00:10:48;5.20;;;3.70;;
84766;SDS011;74995;49.824;10.994;2023-12-20T00:13:14;4.85;;;2.72;;
84766;SDS011;74995;49.824;10.994;2023-12-20T00:15:39;3.50;;;2.43;;
84766;SDS011;74995;49.824;10.994;2023-12-20T00:18:04;4.68;;;3.13;;
84766;SDS011;74995;49.824;10.994;2023-12-20T00:20:30;4.55;;;2.78;;
84766;SDS011;74995;49.824;10.994;2023-12-20T00:22:56;4.90;;;2.95;;
84766;SDS011;74995;49.824;10.994;2023-12-20T00:25:22;4.40;;;3.28;;
84766;SDS011;74995;49.824;10.994;2023-12-20T00:27:48;4.28;;;3.33;;
84766;SDS011;74995;49.824;10.994;2023-12-20T00:30:13;3.97;;;2.80;;
84766;SDS011;74995;49.824;10.994;2023-12-20T00:32:38;3.80;;;2.53;;
84766;SDS011;74995;49.824;10.994;2023-12-20T00:35:04;3.35;;;2.80;;
84766;SDS011;74995;49.824;10.994;2023-12-20T00:39:54;4.13;;;2.60;;
84766;SDS011;74995;49.824;10.994;2023-12-20T00:42:20;5.18;;;3.28;;
84766;SDS011;74995;49.824;10.994;2023-12-20T00:44:45;4.80;;;3.38;;
84766;SDS011;74995;49.824;10.994;2023-12-20T00:47:10;3.80;;;2.53;;
84766;SDS011;74995;49.824;10.994;2023-12-20T00:49:36;4.65;;;2.60;;
84766;SDS011;74995;49.824;10.994;2023-12-20T00:54:26;4.40;;;2.73;;
84766;SDS011;74995;49.824;10.994;2023-12-20T00:56:51;3.67;;;2.50;;
84766;SDS011;74995;49.824;10.994;2023-12-20T00:59:17;4.78;;;2.55;;
84766;SDS011;74995;49.824;10.994;2023-12-20T01:01:43;4.53;;;2.75;;
84766;SDS011;74995;49.824;10.994;2023-12-20T01:04:08;3.15;;;2.47;;
84766;SDS011;74995;49.824;10.994;2023-12-20T01:06:33;3.30;;;2.28;;
84766;SDS011;74995;49.824;10.994;2023-12-20T01:11:24;3.67;;;2.10;;
84766;SDS011;74995;49.824;10.994;2023-12-20T01:16:14;2.93;;;2.50;;
84766;SDS011;74995;49.824;10.994;2023-12-20T01:18:40;3.63;;;2.50;;
84766;SDS011;74995;49.824;10.994;2023-12-20T01:21:05;2.40;;;2.00;;
84766;SDS011;74995;49.824;10.994;2023-12-20T01:23:30;3.15;;;1.75;;
84766;SDS011;74995;49.824;10.994;2023-12-20T01:25:56;2.10;;;1.50;;
84766;SDS011;74995;49.824;10.994;2023-12-20T01:28:22;3.13;;;1.83;;
84766;SDS011;74995;49.824;10.994;2023-12-20T01:30:47;2.88;;;1.77;;
84766;SDS011;74995;49.824;10.994;2023-12-20T01:35:38;2.93;;;2.03;;
84766;SDS011;74995;49.824;10.994;2023-12-20T01:38:03;3.00;;;1.70;;
84766;SDS011;74995;49.824;10.994;2023-12-20T01:40:28;2.35;;;1.73;;
84766;SDS011;74995;49.824;10.994;2023-12-20T01:45:26;1.75;;;1.30;;
84766;SDS011;74995;49.824;10.994;2023-12-20T01:50:16;2.67;;;1.57;;
84766;SDS011;74995;49.824;10.994;2023-12-20T01:52:42;1.95;;;1.50;;
84766;SDS011;74995;49.824;10.994;2023-12-20T01:55:08;2.63;;;1.65;;
84766;SDS011;74995;49.824;10.994;2023-12-20T01:57:38;2.20;;;1.85;;
84766;SDS011;74995;49.824;10.994;2023-12-20T02:00:04;2.03;;;1.40;;
84766;SDS011;74995;49.824;10.994;2023-12-20T02:04:55;2.00;;;1.07;;
84766;SDS011;74995;49.824;10.994;2023-12-20T02:07:21;2.15;;;1.30;;
84766;SDS011;74995;49.824;10.994;2023-12-20T02:09:47;1.55;;;0.95;;
84766;SDS011;74995;49.824;10.994;2023-12-20T02:12:12;2.38;;;1.42;;
84766;SDS011;74995;49.824;10.994;2023-12-20T02:14:38;1.67;;;1.20;;
84766;SDS011;74995;49.824;10.994;2023-12-20T02:17:03;2.00;;;1.23;;
84766;SDS011;74995;49.824;10.994;2023-12-20T02:19:28;1.80;;;1.40;;
84766;SDS011;74995;49.824;10.994;2023-12-20T02:22:09;2.53;;;1.50;;
84766;SDS011;74995;49.824;10.994;2023-12-20T02:24:35;2.28;;;1.20;;
84766;SDS011;74995;49.824;10.994;2023-12-20T02:27:00;1.88;;;1.17;;
84766;SDS011;74995;49.824;10.994;2023-12-20T02:29:26;2.22;;;1.38;;
84766;SDS011;74995;49.824;10.994;2023-12-20T02:31:52;1.30;;;0.80;;
84766;SDS011;74995;49.824;10.994;2023-12-20T02:34:17;1.63;;;0.95;;
84766;SDS011;74995;49.824;10.994;2023-12-20T02:36:42;1.35;;;0.80;;
84766;SDS011;74995;49.824;10.994;2023-12-20T02:39:07;1.07;;;0.70;;
84766;SDS011;74995;49.824;10.994;2023-12-20T02:41:33;1.83;;;0.90;;
84766;SDS011;74995;49.824;10.994;2023-12-20T02:43:58;1.02;;;0.73;;
84766;SDS011;74995;49.824;10.994;2023-12-20T02:46:23;1.00;;;0.77;;
84766;SDS011;74995;49.824;10.994;2023-12-20T02:48:49;1.48;;;0.80;;
84766;SDS011;74995;49.824;10.994;2023-12-20T02:51:14;1.50;;;0.90;;
84766;SDS011;74995;49.824;10.994;2023-12-20T02:53:39;1.13;;;0.73;;
84766;SDS011;74995;49.824;10.994;2023-12-20T02:56:05;1.88;;;1.02;;
84766;SDS011;74995;49.824;10.994;2023-12-20T02:58:30;1.23;;;1.00;;
84766;SDS011;74995;49.824;10.994;2023-12-20T03:00:55;0.90;;;0.60;;
84766;SDS011;74995;49.824;10.994;2023-12-20T03:03:21;1.13;;;0.70;;
84766;SDS011;74995;49.824;10.994;2023-12-20T03:05:46;0.97;;;0.70;;
84766;SDS011;74995;49.824;10.994;2023-12-20T03:08:11;1.05;;;0.82;;
84766;SDS011;74995;49.824;10.994;2023-12-20T03:10:37;0.87;;;0.50;;
84766;SDS011;74995;49.824;10.994;2023-12-20T03:13:02;1.10;;;0.70;;
84766;SDS011;74995;49.824;10.994;2023-12-20T03:15:27;1.05;;;0.40;;
84766;SDS011;74995;49.824;10.994;2023-12-20T03:17:53;1.20;;;0.63;;
84766;SDS011;74995;49.824;10.994;2023-12-20T03:20:18;1.10;;;0.80;;
84766;SDS011;74995;49.824;10.994;2023-12-20T03:22:43;1.70;;;0.67;;
84766;SDS011;74995;49.824;10.994;2023-12-20T03:25:08;1.23;;;0.70;;
84766;SDS011;74995;49.824;10.994;2023-12-20T03:27:34;1.08;;;0.68;;
84766;SDS011;74995;49.824;10.994;2023-12-20T03:30:02;1.13;;;0.40;;
84766;SDS011;74995;49.824;10.994;2023-12-20T03:32:28;0.50;;;0.40;;
84766;SDS011;74995;49.824;10.994;2023-12-20T03:34:53;0.70;;;0.60;;
84766;SDS011;74995;49.824;10.994;2023-12-20T03:37:18;0.40;;;0.38;;
84766;SDS011;74995;49.824;10.994;2023-12-20T03:39:43;1.00;;;0.40;;
84766;SDS011;74995;49.824;10.994;2023-12-20T03:42:09;0.22;;;0.20;;
84766;SDS011;74995;49.824;10.994;2023-12-20T03:44:34;0.43;;;0.40;;
84766;SDS011;74995;49.824;10.994;2023-12-20T03:46:59;0.52;;;0.38;;
84766;SDS011;74995;49.824;10.994;2023-12-20T03:49:25;1.00;;;0.30;;
84766;SDS011;74995;49.824;10.994;2023-12-20T03:51:50;0.40;;;0.32;;
84766;SDS011;74995;49.824;10.994;2023-12-20T03:54:15;0.57;;;0.50;;
84766;SDS011;74995;49.824;10.994;2023-12-20T03:56:41;0.37;;;0.30;;
84766;SDS011;74995;49.824;10.994;2023-12-20T03:59:06;0.40;;;0.40;;
84766;SDS011;74995;49.824;10.994;2023-12-20T04:01:31;0.77;;;0.73;;
84766;SDS011;74995;49.824;10.994;2023-12-20T04:03:56;0.50;;;0.40;;
84766;SDS011;74995;49.824;10.994;2023-12-20T04:06:22;0.45;;;0.43;;
84766;SDS011;74995;49.824;10.994;2023-12-20T04:08:47;0.43;;;0.43;;
84766;SDS011;74995;49.824;10.994;2023-12-20T04:11:12;0.20;;;0.20;;
84766;SDS011;74995;49.824;10.994;2023-12-20T04:13:37;0.40;;;0.30;;
84766;SDS011;74995;49.824;10.994;2023-12-20T04:16:03;0.70;;;0.30;;
84766;SDS011;74995;49.824;10.994;2023-12-20T04:18:28;0.32;;;0.32;;
84766;SDS011;74995;49.824;10.994;2023-12-20T04:20:54;0.50;;;0.40;;
84766;SDS011;74995;49.824;10.994;2023-12-20T04:23:19;0.65;;;0.40;;
84766;SDS011;74995;49.824;10.994;2023-12-20T04:25:44;0.47;;;0.40;;
84766;SDS011;74995;49.824;10.994;2023-12-20T04:28:09;0.40;;;0.30;;
84766;SDS011;74995;49.824;10.994;2023-12-20T04:30:35;0.55;;;0.38;;
84766;SDS011;74995;49.824;10.994;2023-12-20T04:33:00;0.25;;;0.20;;
84766;SDS011;74995;49.824;10.994;2023-12-20T04:35:25;0.50;;;0.25;;
84766;SDS011;74995;49.824;10.994;2023-12-20T04:37:51;0.40;;;0.40;;
84766;SDS011;74995;49.824;10.994;2023-12-20T04:40:16;0.52;;;0.40;;
84766;SDS011;74995;49.824;10.994;2023-12-20T04:42:41;0.40;;;0.40;;
84766;SDS011;74995;49.824;10.994;2023-12-20T04:45:07;0.60;;;0.30;;
84766;SDS011;74995;49.824;10.994;2023-12-20T04:47:32;0.40;;;0.22;;
84766;SDS011;74995;49.824;10.994;2023-12-20T04:49:58;0.30;;;0.25;;
84766;SDS011;74995;49.824;10.994;2023-12-20T04:52:23;0.22;;;0.20;;
84766;SDS011;74995;49.824;10.994;2023-12-20T04:54:49;0.40;;;0.40;;
84766;SDS011;74995;49.824;10.994;2023-12-20T04:57:14;0.57;;;0.45;;
84766;SDS011;74995;49.824;10.994;2023-12-20T04:59:39;0.38;;;0.20;;
84766;SDS011;74995;49.824;10.994;2023-12-20T05:02:06;1.42;;;0.22;;
84766;SDS011;74995;49.824;10.994;2023-12-20T05:04:31;0.47;;;0.43;;
84766;SDS011;74995;49.824;10.994;2023-12-20T05:06:56;0.32;;;0.30;;
84766;SDS011;74995;49.824;10.994;2023-12-20T05:09:21;0.30;;;0.22;;
84766;SDS011;74995;49.824;10.994;2023-12-20T05:14:12;0.50;;;0.40;;
84766;SDS011;74995;49.824;10.994;2023-12-20T05:16:37;0.17;;;0.17;;
84766;SDS011;74995;49.824;10.994;2023-12-20T05:19:03;0.63;;;0.30;;
84766;SDS011;74995;49.824;10.994;2023-12-20T05:21:31;0.38;;;0.38;;
84766;SDS011;74995;49.824;10.994;2023-12-20T05:23:56;0.57;;;0.30;;
84766;SDS011;74995;49.824;10.994;2023-12-20T05:26:22;0.32;;;0.28;;
84766;SDS011;74995;49.824;10.994;2023-12-20T05:28:47;0.40;;;0.38;;
84766;SDS011;74995;49.824;10.994;2023-12-20T05:31:12;0.80;;;0.40;;
84766;SDS011;74995;49.824;10.994;2023-12-20T05:33:38;0.35;;;0.30;;
84766;SDS011;74995;49.824;10.994;2023-12-20T05:36:03;1.10;;;0.32;;
84766;SDS011;74995;49.824;10.994;2023-12-20T05:38:29;0.63;;;0.50;;
84766;SDS011;74995;49.824;10.994;2023-12-20T05:40:54;0.57;;;0.43;;
84766;SDS011;74995;49.824;10.994;2023-12-20T05:43:19;0.50;;;0.30;;
84766;SDS011;74995;49.824;10.994;2023-12-20T05:45:45;0.28;;;0.28;;
84766;SDS011;74995;49.824;10.994;2023-12-20T05:48:10;1.02;;;0.35;;
84766;SDS011;74995;49.824;10.994;2023-12-20T05:50:35;0.30;;;0.30;;
84766;SDS011;74995;49.824;10.994;2023-12-20T05:53:01;0.40;;;0.30;;
84766;SDS011;74995;49.824;10.994;2023-12-20T05:55:27;0.52;;;0.50;;
84766;SDS011;74995;49.824;10.994;2023-12-20T05:57:52;0.60;;;0.40;;
84766;SDS011;74995;49.824;10.994;2023-12-20T06:00:17;0.45;;;0.40;;
84766;SDS011;74995;49.824;10.994;2023-12-20T06:02:43;0.68;;;0.50;;
84766;SDS011;74995;49.824;10.994;2023-12-20T06:05:08;0.30;;;0.30;;
84766;SDS011;74995;49.824;10.994;2023-12-20T06:07:33;0.55;;;0.40;;
84766;SDS011;74995;49.824;10.994;2023-12-20T06:09:58;1.70;;;0.30;;
84766;SDS011;74995;49.824;10.994;2023-12-20T06:12:24;0.50;;;0.50;;
84766;SDS011;74995;49.824;10.994;2023-12-20T06:14:51;0.50;;;0.50;;
84766;SDS011;74995;49.824;10.994;2023-12-20T06:17:16;0.50;;;0.43;;
84766;SDS011;74995;49.824;10.994;2023-12-20T06:19:42;1.63;;;0.47;;
84766;SDS011;74995;49.824;10.994;2023-12-20T06:22:09;0.25;;;0.25;;
84766;SDS011;74995;49.824;10.994;2023-12-20T06:24:35;0.75;;;0.30;;
84766;SDS011;74995;49.824;10.994;2023-12-20T06:27:01;0.20;;;0.20;;
84766;SDS011;74995;49.824;10.994;2023-12-20T06:29:26;0.38;;;0.38;;
84766;SDS011;74995;49.824;10.994;2023-12-20T06:31:51;0.55;;;0.50;;
84766;SDS011;74995;49.824;10.994;2023-12-20T06:34:17;0.30;;;0.30;;
84766;SDS011;74995;49.824;10.994;2023-12-20T06:36:42;0.43;;;0.30;;
84766;SDS011;74995;49.824;10.994;2023-12-20T06:39:07;0.47;;;0.38;;
84766;SDS011;74995;49.824;10.994;2023-12-20T06:41:33;0.63;;;0.30;;
84766;SDS011;74995;49.824;10.994;2023-12-20T06:43:59;1.20;;;0.70;;
84766;SDS011;74995;49.824;10.994;2023-12-20T06:46:24;0.30;;;0.30;;
84766;SDS011;74995;49.824;10.994;2023-12-20T06:48:50;0.40;;;0.40;;
84766;SDS011;74995;49.824;10.994;2023-12-20T06:51:16;0.40;;;0.40;;
84766;SDS011;74995;49.824;10.994;2023-12-20T06:53:41;0.93;;;0.70;;
84766;SDS011;74995;49.824;10.994;2023-12-20T06:56:07;0.50;;;0.40;;
84766;SDS011;74995;49.824;10.994;2023-12-20T06:58:32;0.40;;;0.40;;
84766;SDS011;74995;49.824;10.994;2023-12-20T07:00:58;0.57;;;0.50;;
84766;SDS011;74995;49.824;10.994;2023-12-20T07:03:23;1.35;;;0.80;;
84766;SDS011;74995;49.824;10.994;2023-12-20T07:05:48;1.25;;;0.70;;
84766;SDS011;74995;49.824;10.994;2023-12-20T07:08:13;1.00;;;0.77;;
84766;SDS011;74995;49.824;10.994;2023-12-20T07:10:40;0.60;;;0.55;;
84766;SDS011;74995;49.824;10.994;2023-12-20T07:13:06;0.63;;;0.60;;
84766;SDS011;74995;49.824;10.994;2023-12-20T07:15:32;0.65;;;0.52;;
84766;SDS011;74995;49.824;10.994;2023-12-20T07:17:58;1.15;;;0.80;;
84766;SDS011;74995;49.824;10.994;2023-12-20T07:20:25;1.52;;;0.60;;
84766;SDS011;74995;49.824;10.994;2023-12-20T07:22:50;0.70;;;0.60;;
84766;SDS011;74995;49.824;10.994;2023-12-20T07:25:16;0.60;;;0.50;;
84766;SDS011;74995;49.824;10.994;2023-12-20T07:27:41;0.93;;;0.80;;
84766;SDS011;74995;49.824;10.994;2023-12-20T07:30:06;0.70;;;0.50;;
84766;SDS011;74995;49.824;10.994;2023-12-20T07:34:57;1.10;;;0.73;;
84766;SDS011;74995;49.824;10.994;2023-12-20T07:37:23;1.75;;;0.60;;
84766;SDS011;74995;49.824;10.994;2023-12-20T07:39:48;0.70;;;0.70;;
84766;SDS011;74995;49.824;10.994;2023-12-20T07:42:13;0.57;;;0.50;;
84766;SDS011;74995;49.824;10.994;2023-12-20T07:47:04;0.50;;;0.40;;
84766;SDS011;74995;49.824;10.994;2023-12-20T07:49:32;0.70;;;0.65;;
84766;SDS011;74995;49.824;10.994;2023-12-20T07:51:57;1.10;;;0.65;;
84766;SDS011;74995;49.824;10.994;2023-12-20T07:54:23;0.93;;;0.73;;
84766;SDS011;74995;49.824;10.994;2023-12-20T07:56:48;2.15;;;0.90;;
84766;SDS011;74995;49.824;10.994;2023-12-20T07:59:14;1.73;;;0.90;;
84766;SDS011;74995;49.824;10.994;2023-12-20T08:01:39;2.83;;;1.08;;
84766;SDS011;74995;49.824;10.994;2023-12-20T08:04:04;1.60;;;1.00;;
84766;SDS011;74995;49.824;10.994;2023-12-20T08:06:30;1.15;;;0.88;;
84766;SDS011;74995;49.824;10.994;2023-12-20T08:08:55;1.33;;;0.90;;
84766;SDS011;74995;49.824;10.994;2023-12-20T08:11:20;1.58;;;0.80;;
84766;SDS011;74995;49.824;10.994;2023-12-20T08:13:45;1.42;;;1.02;;
84766;SDS011;74995;49.824;10.994;2023-12-20T08:16:11;1.40;;;1.00;;
84766;SDS011;74995;49.824;10.994;2023-12-20T08:18:38;1.60;;;1.05;;
84766;SDS011;74995;49.824;10.994;2023-12-20T08:21:04;1.30;;;0.90;;
84766;SDS011;74995;49.824;10.994;2023-12-20T08:23:29;1.27;;;1.00;;
84766;SDS011;74995;49.824;10.994;2023-12-20T08:25:54;2.08;;;1.15;;
84766;SDS011;74995;49.824;10.994;2023-12-20T08:28:19;2.83;;;1.20;;
84766;SDS011;74995;49.824;10.994;2023-12-20T08:30:45;1.75;;;1.17;;
84766;SDS011;74995;49.824;10.994;2023-12-20T08:35:38;1.50;;;1.00;;
84766;SDS011;74995;49.824;10.994;2023-12-20T08:38:06;2.22;;;1.38;;
84766;SDS011;74995;49.824;10.994;2023-12-20T08:40:31;1.52;;;0.85;;
84766;SDS011;74995;49.824;10.994;2023-12-20T08:42:57;2.15;;;1.38;;
84766;SDS011;74995;49.824;10.994;2023-12-20T08:45:22;1.55;;;1.20;;
84766;SDS011;74995;49.824;10.994;2023-12-20T08:47:47;2.10;;;1.20;;
84766;SDS011;74995;49.824;10.994;2023-12-20T08:50:12;1.77;;;1.20;;
84766;SDS011;74995;49.824;10.994;2023-12-20T08:52:38;3.08;;;1.27;;
84766;SDS011;74995;49.824;10.994;2023-12-20T08:55:03;3.22;;;1.50;;
84766;SDS011;74995;49.824;10.994;2023-12-20T08:57:29;3.28;;;1.52;;
84766;SDS011;74995;49.824;10.994;2023-12-20T08:59:56;2.53;;;1.27;;
84766;SDS011;74995;49.824;10.994;2023-12-20T09:02:22;1.90;;;1.10;;
84766;SDS011;74995;49.824;10.994;2023-12-20T09:04:47;1.63;;;1.10;;
84766;SDS011;74995;49.824;10.994;2023-12-20T09:09:50;1.33;;;1.10;;
84766;SDS011;74995;49.824;10.994;2023-12-20T09:12:17;1.65;;;1.20;;
84766;SDS011;74995;49.824;10.994;2023-12-20T09:14:44;4.05;;;1.23;;
84766;SDS011;74995;49.824;10.994;2023-12-20T09:19:36;1.80;;;1.00;;
84766;SDS011;74995;49.824;10.994;2023-12-20T09:24:27;1.20;;;0.90;;
84766;SDS011;74995;49.824;10.994;2023-12-20T09:26:52;2.28;;;0.98;;
84766;SDS011;74995;49.824;10.994;2023-12-20T09:29:17;1.85;;;1.15;;
84766;SDS011;74995;49.824;10.994;2023-12-20T09:31:43;1.73;;;1.05;;
84766;SDS011;74995;49.824;10.994;2023-12-20T09:34:09;2.05;;;1.08;;
84766;SDS011;74995;49.824;10.994;2023-12-20T09:36:34;1.67;;;1.00;;
84766;SDS011;74995;49.824;10.994;2023-12-20T09:39:01;1.20;;;0.98;;
84766;SDS011;74995;49.824;10.994;2023-12-20T09:41:27;2.30;;;1.23;;
84766;SDS011;74995;49.824;10.994;2023-12-20T09:43:53;3.35;;;1.30;;
84766;SDS011;74995;49.824;10.994;2023-12-20T09:46:19;2.13;;;1.30;;
84766;SDS011;74995;49.824;10.994;2023-12-20T09:48:49;1.60;;;1.02;;
84766;SDS011;74995;49.824;10.994;2023-12-20T09:51:15;2.17;;;1.20;;
84766;SDS011;74995;49.824;10.994;2023-12-20T09:53:40;1.40;;;1.00;;
84766;SDS011;74995;49.824;10.994;2023-12-20T09:56:06;1.38;;;0.80;;
84766;SDS011;74995;49.824;10.994;2023-12-20T09:58:32;3.00;;;1.17;;
84766;SDS011;74995;49.824;10.994;2023-12-20T10:00:57;1.23;;;0.95;;
84766;SDS011;74995;49.824;10.994;2023-12-20T10:03:24;1.77;;;1.10;;
84766;SDS011;74995;49.824;10.994;2023-12-20T10:05:51;4.35;;;0.90;;
84766;SDS011;74995;49.824;10.994;2023-12-20T10:08:17;4.18;;;1.40;;
84766;SDS011;74995;49.824;10.994;2023-12-20T10:10:46;2.13;;;1.00;;
84766;SDS011;74995;49.824;10.994;2023-12-20T10:13:11;3.10;;;1.00;;
84766;SDS011;74995;49.824;10.994;2023-12-20T10:15:37;4.47;;;0.98;;
84766;SDS011;74995;49.824;10.994;2023-12-20T10:18:03;1.33;;;0.82;;
84766;SDS011;74995;49.824;10.994;2023-12-20T10:20:29;2.05;;;0.90;;
84766;SDS011;74995;49.824;10.994;2023-12-20T10:22:55;2.05;;;1.20;;
84766;SDS011;74995;49.824;10.994;2023-12-20T10:25:21;1.75;;;1.00;;
84766;SDS011;74995;49.824;10.994;2023-12-20T10:27:47;2.78;;;1.20;;
84766;SDS011;74995;49.824;10.994;2023-12-20T10:30:14;2.70;;;1.00;;
84766;SDS011;74995;49.824;10.994;2023-12-20T10:32:40;2.20;;;1.20;;
84766;SDS011;74995;49.824;10.994;2023-12-20T10:35:05;2.53;;;0.90;;
84766;SDS011;74995;49.824;10.994;2023-12-20T10:37:34;3.72;;;0.93;;
84766;SDS011;74995;49.824;10.994;2023-12-20T10:40:00;1.75;;;0.80;;
84766;SDS011;74995;49.824;10.994;2023-12-20T10:42:28;2.15;;;0.93;;
84766;SDS011;74995;49.824;10.994;2023-12-20T10:44:54;3.25;;;0.95;;
84766;SDS011;74995;49.824;10.994;2023-12-20T10:47:20;1.75;;;0.80;;
84766;SDS011;74995;49.824;10.994;2023-12-20T10:49:45;2.90;;;0.95;;
84766;SDS011;74995;49.824;10.994;2023-12-20T10:52:11;1.77;;;0.80;;
84766;SDS011;74995;49.824;10.994;2023-12-20T10:57:04;4.28;;;1.25;;
84766;SDS011;74995;49.824;10.994;2023-12-20T10:59:30;2.05;;;0.90;;
84766;SDS011;74995;49.824;10.994;2023-12-20T11:01:58;1.88;;;1.20;;
84766;SDS011;74995;49.824;10.994;2023-12-20T11:10:14;2.92;;;0.98;;
84766;SDS011;74995;49.824;10.994;2023-12-20T11:12:44;1.42;;;0.95;;
84766;SDS011;74995;49.824;10.994;2023-12-20T11:15:24;4.43;;;1.13;;
84766;SDS011;74995;49.824;10.994;2023-12-20T11:17:55;2.35;;;1.48;;
84766;SDS011;74995;49.824;10.994;2023-12-20T11:20:24;2.90;;;1.10;;
84766;SDS011;74995;49.824;10.994;2023-12-20T11:23:00;4.07;;;0.80;;
84766;SDS011;74995;49.824;10.994;2023-12-20T11:25:26;2.30;;;0.70;;
84766;SDS011;74995;49.824;10.994;2023-12-20T11:28:07;2.15;;;0.90;;
84766;SDS011;74995;49.824;10.994;2023-12-20T11:30:41;3.45;;;1.15;;
84766;SDS011;74995;49.824;10.994;2023-12-20T11:33:08;2.10;;;1.20;;
84766;SDS011;74995;49.824;10.994;2023-12-20T11:35:33;3.80;;;1.77;;
84766;SDS011;74995;49.824;10.994;2023-12-20T11:38:00;4.53;;;2.05;;
84766;SDS011;74995;49.824;10.994;2023-12-20T11:40:25;3.05;;;1.30;;
84766;SDS011;74995;49.824;10.994;2023-12-20T11:42:51;3.75;;;1.35;;
84766;SDS011;74995;49.824;10.994;2023-12-20T11:45:21;2.75;;;1.40;;
84766;SDS011;74995;49.824;10.994;2023-12-20T11:47:47;2.63;;;0.98;;
84766;SDS011;74995;49.824;10.994;2023-12-20T11:50:14;3.90;;;1.60;;
84766;SDS011;74995;49.824;10.994;2023-12-20T11:52:40;2.63;;;1.10;;
84766;SDS011;74995;49.824;10.994;2023-12-20T11:55:05;3.30;;;1.13;;
84766;SDS011;74995;49.824;10.994;2023-12-20T11:59:56;4.65;;;1.25;;
84766;SDS011;74995;49.824;10.994;2023-12-20T12:02:22;2.55;;;1.05;;
84766;SDS011;74995;49.824;10.994;2023-12-20T12:04:48;2.65;;;1.38;;
84766;SDS011;74995;49.824;10.994;2023-12-20T12:07:15;4.30;;;1.23;;
84766;SDS011;74995;49.824;10.994;2023-12-20T12:09:40;2.95;;;1.10;;
84766;SDS011;74995;49.824;10.994;2023-12-20T12:12:06;2.70;;;1.03;;
84766;SDS011;74995;49.824;10.994;2023-12-20T12:14:32;2.88;;;1.05;;
84766;SDS011;74995;49.824;10.994;2023-12-20T12:16:57;4.88;;;1.85;;
84766;SDS011;74995;49.824;10.994;2023-12-20T12:19:23;3.97;;;1.52;;
84766;SDS011;74995;49.824;10.994;2023-12-20T12:21:49;3.00;;;1.33;;
84766;SDS011;74995;49.824;10.994;2023-12-20T12:24:15;4.82;;;2.10;;
84766;SDS011;74995;49.824;10.994;2023-12-20T12:26:49;6.28;;;2.10;;
84766;SDS011;74995;49.824;10.994;2023-12-20T12:29:15;4.90;;;2.60;;
84766;SDS011;74995;49.824;10.994;2023-12-20T12:31:40;5.70;;;2.77;;
84766;SDS011;74995;49.824;10.994;2023-12-20T12:34:06;6.43;;;2.08;;
84766;SDS011;74995;49.824;10.994;2023-12-20T12:36:34;5.57;;;1.88;;
84766;SDS011;74995;49.824;10.994;2023-12-20T12:39:01;3.47;;;1.33;;
84766;SDS011;74995;49.824;10.994;2023-12-20T12:41:28;4.68;;;2.13;;
84766;SDS011;74995;49.824;10.994;2023-12-20T12:43:54;5.65;;;2.20;;
84766;SDS011;74995;49.824;10.994;2023-12-20T12:46:19;3.70;;;1.63;;
84766;SDS011;74995;49.824;10.994;2023-12-20T12:48:44;5.05;;;1.70;;
84766;SDS011;74995;49.824;10.994;2023-12-20T12:51:10;8.68;;;1.85;;
84766;SDS011;74995;49.824;10.994;2023-12-20T12:53:38;3.33;;;3.03;;
84766;SDS011;74995;49.824;10.994;2023-12-20T12:56:03;5.50;;;1.80;;
84766;SDS011;74995;49.824;10.994;2023-12-20T12:58:29;4.55;;;1.42;;
84766;SDS011;74995;49.824;10.994;2023-12-20T13:00:55;3.80;;;1.77;;
84766;SDS011;74995;49.824;10.994;2023-12-20T13:03:20;4.03;;;2.28;;
84766;SDS011;74995;49.824;10.994;2023-12-20T13:08:12;3.92;;;1.65;;
84766;SDS011;74995;49.824;10.994;2023-12-20T13:10:38;4.63;;;1.60;;
84766;SDS011;74995;49.824;10.994;2023-12-20T13:13:04;7.60;;;2.60;;
84766;SDS011;74995;49.824;10.994;2023-12-20T13:15:29;5.73;;;2.77;;
84766;SDS011;74995;49.824;10.994;2023-12-20T13:17:55;4.28;;;1.85;;
84766;SDS011;74995;49.824;10.994;2023-12-20T13:20:20;3.78;;;1.90;;
84766;SDS011;74995;49.824;10.994;2023-12-20T13:22:47;3.78;;;1.52;;
84766;SDS011;74995;49.824;10.994;2023-12-20T13:25:12;6.03;;;1.60;;
84766;SDS011;74995;49.824;10.994;2023-12-20T13:27:38;2.97;;;1.38;;
84766;SDS011;74995;49.824;10.994;2023-12-20T13:30:03;3.20;;;1.50;;
84766;SDS011;74995;49.824;10.994;2023-12-20T13:32:29;4.18;;;1.83;;
84766;SDS011;74995;49.824;10.994;2023-12-20T13:34:54;3.35;;;1.58;;
84766;SDS011;74995;49.824;10.994;2023-12-20T13:37:20;3.70;;;1.45;;
84766;SDS011;74995;49.824;10.994;2023-12-20T13:39:45;3.15;;;1.52;;
84766;SDS011;74995;49.824;10.994;2023-12-20T13:42:11;4.47;;;1.80;;
84766;SDS011;74995;49.824;10.994;2023-12-20T13:44:36;2.72;;;1.52;;
84766;SDS011;74995;49.824;10.994;2023-12-20T13:47:01;4.30;;;1.40;;
84766;SDS011;74995;49.824;10.994;2023-12-20T13:49:28;4.28;;;1.92;;
84766;SDS011;74995;49.824;10.994;2023-12-20T13:51:53;2.43;;;1.20;;
84766;SDS011;74995;49.824;10.994;2023-12-20T13:54:19;2.90;;;1.38;;
84766;SDS011;74995;49.824;10.994;2023-12-20T13:56:47;3.40;;;1.33;;
84766;SDS011;74995;49.824;10.994;2023-12-20T13:59:12;3.90;;;1.05;;
84766;SDS011;74995;49.824;10.994;2023-12-20T14:01:38;2.08;;;1.10;;
84766;SDS011;74995;49.824;10.994;2023-12-20T14:04:04;4.00;;;1.48;;
84766;SDS011;74995;49.824;10.994;2023-12-20T14:06:29;2.92;;;1.48;;
84766;SDS011;74995;49.824;10.994;2023-12-20T14:08:54;2.30;;;0.90;;
84766;SDS011;74995;49.824;10.994;2023-12-20T14:11:20;3.58;;;1.08;;
84766;SDS011;74995;49.824;10.994;2023-12-20T14:13:45;3.28;;;1.27;;
84766;SDS011;74995;49.824;10.994;2023-12-20T14:18:36;1.87;;;0.97;;
84766;SDS011;74995;49.824;10.994;2023-12-20T14:21:01;6.43;;;1.30;;
84766;SDS011;74995;49.824;10.994;2023-12-20T14:23:26;2.72;;;1.02;;
84766;SDS011;74995;49.824;10.994;2023-12-20T14:25:52;3.90;;;1.33;;
84766;SDS011;74995;49.824;10.994;2023-12-20T14:28:17;3.05;;;0.88;;
84766;SDS011;74995;49.824;10.994;2023-12-20T14:30:42;2.53;;;0.82;;
84766;SDS011;74995;49.824;10.994;2023-12-20T14:33:08;2.63;;;1.00;;
84766;SDS011;74995;49.824;10.994;2023-12-20T14:35:33;3.78;;;1.10;;
84766;SDS011;74995;49.824;10.994;2023-12-20T14:40:24;2.38;;;1.15;;
84766;SDS011;74995;49.824;10.994;2023-12-20T14:42:50;2.00;;;0.80;;
84766;SDS011;74995;49.824;10.994;2023-12-20T14:45:16;1.55;;;0.90;;
84766;SDS011;74995;49.824;10.994;2023-12-20T14:50:07;1.63;;;0.82;;
84766;SDS011;74995;49.824;10.994;2023-12-20T14:52:33;4.78;;;1.27;;
84766;SDS011;74995;49.824;10.994;2023-12-20T14:54:59;1.95;;;1.15;;
84766;SDS011;74995;49.824;10.994;2023-12-20T14:57:25;3.78;;;1.63;;
84766;SDS011;74995;49.824;10.994;2023-12-20T14:59:51;4.78;;;1.40;;
84766;SDS011;74995;49.824;10.994;2023-12-20T15:02:16;3.08;;;1.30;;
84766;SDS011;74995;49.824;10.994;2023-12-20T15:04:41;4.15;;;1.60;;
84766;SDS011;74995;49.824;10.994;2023-12-20T15:07:07;2.95;;;1.25;;
84766;SDS011;74995;49.824;10.994;2023-12-20T15:09:32;3.35;;;1.38;;
84766;SDS011;74995;49.824;10.994;2023-12-20T15:11:57;6.70;;;1.30;;
84766;SDS011;74995;49.824;10.994;2023-12-20T15:14:23;3.00;;;1.05;;
84766;SDS011;74995;49.824;10.994;2023-12-20T15:16:48;10.70;;;2.55;;
84766;SDS011;74995;49.824;10.994;2023-12-20T15:19:13;4.03;;;1.23;;
84766;SDS011;74995;49.824;10.994;2023-12-20T15:21:39;4.93;;;1.08;;